Time;durP1;ratioP1;P1;durP2;ratioP2;P2;SDS_P1;SDS_P2;PMS_P1;PMS_P2;Temp;Humidity;BMP_temperature;BMP_pressure;BME280_temperature;BME280_humidity;BME280_pressure;Samples;Min_cycle;Max_cycle;Signal;HPM_P1;HPM_P2
2022/06/22 00:02:06;;;;;;;10.93;7.40;;;;;;;11.13;100.00;100430.88;7393519;19;20386;-61
2022/06/22 00:04:44;;;;;;;11.13;5.30;;;;;;;10.94;100.00;100442.28;7386947;19;20416;-60
2022/06/22 00:07:16;;;;;;;10.50;5.90;;;;;;;10.86;100.00;100454.03;7393884;19;20389;-59
2022/06/22 00:09:46;;;;;;;8.03;5.40;;;;;;;10.86;100.00;100485.88;7365233;19;20551;-59
2022/06/22 00:12:24;;;;;;;8.93;5.33;;;;;;;11.01;100.00;100498.47;7393444;19;20745;-60
2022/06/22 00:14:56;;;;;;;12.03;5.47;;;;;;;11.11;100.00;100491.91;7387987;19;20454;-60
2022/06/22 00:17:29;;;;;;;11.63;5.57;;;;;;;11.12;100.00;100492.81;7393649;19;20386;-61
2022/06/22 00:20:08;;;;;;;13.23;6.67;;;;;;;11.10;100.00;100494.44;7386619;19;20443;-60
2022/06/22 00:22:49;;;;;;;10.33;6.70;;;;;;;11.10;100.00;100502.19;7393014;19;20386;-60
2022/06/22 00:25:24;;;;;;;8.60;5.87;;;;;;;11.16;100.00;100503.28;7388582;19;20427;-60
2022/06/22 00:27:53;;;;;;;9.37;5.57;;;;;;;11.20;100.00;100497.41;7394040;19;20391;-60
2022/06/22 00:30:29;;;;;;;13.07;7.10;;;;;;;11.25;100.00;100497.56;7386658;19;20411;-61
2022/06/22 00:33:13;;;;;;;7.23;5.30;;;;;;;10.80;100.00;100490.81;7386896;19;20788;-62
2022/06/22 00:35:53;;;;;;;10.00;5.40;;;;;;;10.56;100.00;100499.41;7393537;19;20904;-60
2022/06/22 00:38:26;;;;;;;10.00;6.33;;;;;;;10.66;100.00;100517.00;7387723;19;20970;-61
2022/06/22 00:40:59;;;;;;;12.03;6.47;;;;;;;10.90;100.00;100565.19;7391661;19;20413;-61
2022/06/22 00:43:31;;;;;;;9.07;5.10;;;;;;;11.05;100.00;100579.47;7386213;19;20988;-61
2022/06/22 00:46:02;;;;;;;10.50;6.00;;;;;;;11.10;100.00;100580.53;7393335;19;20477;-61
2022/06/22 00:48:35;;;;;;;7.27;5.53;;;;;;;11.05;100.00;100579.47;7386548;19;20504;-60
2022/06/22 00:51:09;;;;;;;9.60;5.60;;;;;;;10.99;100.00;100569.81;7391415;19;20414;-60
2022/06/22 00:53:41;;;;;;;11.63;5.47;;;;;;;10.97;100.00;100578.31;7387465;19;20401;-60
2022/06/22 00:56:17;;;;;;;10.20;5.50;;;;;;;10.99;100.00;100577.56;7393119;19;20417;-60
2022/06/22 00:58:56;;;;;;;11.03;6.50;;;;;;;10.85;100.00;100571.88;7386581;19;20432;-60
2022/06/22 01:01:29;;;;;;;10.30;5.80;;;;;;;10.72;100.00;100572.25;7391341;19;20424;-61
2022/06/22 01:04:03;;;;;;;9.70;6.07;;;;;;;10.66;100.00;100573.75;7389441;19;20435;-61
2022/06/22 01:06:42;;;;;;;10.67;5.63;;;;;;;10.80;100.00;100592.34;7405499;19;20414;-60
2022/06/22 01:09:18;;;;;;;13.70;7.00;;;;;;;10.74;100.00;100593.81;7389630;19;20525;-60
2022/06/22 01:14:47;;;;;;;10.07;5.87;;;;;;;10.41;100.00;100595.09;7384549;19;20413;-60
2022/06/22 01:17:21;;;;;;;10.00;6.07;;;;;;;10.49;100.00;100614.38;7399839;19;20392;-60
2022/06/22 01:19:56;;;;;;;10.10;6.17;;;;;;;10.42;100.00;100619.19;7390993;19;20512;-59
2022/06/22 01:22:53;;;;;;;8.80;6.00;;;;;;;10.40;100.00;100614.84;7399776;19;20421;-59
2022/06/22 01:25:39;;;;;;;7.83;5.47;;;;;;;10.33;100.00;100633.47;7393009;19;20418;-60
2022/06/22 01:28:12;;;;;;;11.17;6.23;;;;;;;10.35;100.00;100654.16;7393741;19;20408;-61
2022/06/22 01:30:43;;;;;;;10.17;6.10;;;;;;;10.31;100.00;100694.41;7397581;19;20412;-61
2022/06/22 01:33:18;;;;;;;11.20;6.80;;;;;;;10.15;100.00;100710.94;7396020;19;20391;-61
2022/06/22 01:35:48;;;;;;;10.03;6.30;;;;;;;9.82;100.00;100737.00;7399561;19;20389;-61
2022/06/22 01:38:25;;;;;;;12.30;6.83;;;;;;;9.64;100.00;101066.84;7387054;19;20415;-61
2022/06/22 01:41:04;;;;;;;7.90;5.90;;;;;;;9.46;100.00;101077.97;7397197;19;20755;-60
2022/06/22 01:43:39;;;;;;;7.50;5.87;;;;;;;9.41;100.00;101077.72;7392154;19;20768;-60
2022/06/22 01:46:16;;;;;;;14.20;6.50;;;;;;;9.45;100.00;101081.34;7398853;19;20388;-60
2022/06/22 01:48:49;;;;;;;20.73;12.83;;;;;;;9.64;100.00;101083.16;7392662;19;20419;-60
2022/06/22 01:51:28;;;;;;;19.03;12.30;;;;;;;10.44;100.00;101075.03;7397094;19;20417;-61
2022/06/22 01:54:03;;;;;;;48.40;26.40;;;;;;;10.83;100.00;101068.19;7392396;19;20411;-60
2022/06/22 01:56:37;;;;;;;37.73;20.87;;;;;;;10.83;100.00;101063.91;7398884;19;20735;-60
2022/06/22 01:59:18;;;;;;;39.70;24.80;;;;;;;11.00;100.00;101066.34;7391732;19;21041;-60
2022/06/22 02:01:52;;;;;;;35.40;20.43;;;;;;;11.13;100.00;101070.38;7396118;19;20428;-60
2022/06/22 02:04:27;;;;;;;21.27;13.00;;;;;;;11.23;100.00;101074.25;7391450;19;20420;-60
2022/06/22 02:09:55;;;;;;;14.80;9.90;;;;;;;11.33;100.00;101085.06;7391906;19;20471;-60
2022/06/22 02:12:29;;;;;;;14.27;8.50;;;;;;;11.19;100.00;101083.56;7397670;19;20387;-59
2022/06/22 02:15:07;;;;;;;14.10;8.30;;;;;;;11.04;100.00;101087.22;7391512;19;20433;-59
2022/06/22 02:17:39;;;;;;;15.93;7.63;;;;;;;11.18;100.00;101082.69;7401894;19;20948;-59
2022/06/22 02:20:36;;;;;;;9.97;6.87;;;;;;;10.71;100.00;101076.25;7394049;19;20463;-61
2022/06/22 02:23:18;;;;;;;9.07;5.83;;;;;;;10.67;100.00;101078.69;7391804;19;20473;-60
2022/06/22 02:26:05;;;;;;;11.03;7.10;;;;;;;10.40;100.00;101083.38;7397973;19;20385;-60
2022/06/22 02:28:35;;;;;;;9.97;6.00;;;;;;;10.97;100.00;101084.31;7391450;19;20939;-60
2022/06/22 02:31:07;;;;;;;11.33;6.80;;;;;;;11.14;100.00;101079.91;7395401;19;20416;-60
2022/06/22 02:33:38;;;;;;;13.10;6.83;;;;;;;10.49;100.00;101073.56;7391386;19;20417;-59
2022/06/22 02:36:09;;;;;;;9.60;6.50;;;;;;;10.02;100.00;101078.16;7397540;19;20739;-60
2022/06/22 02:38:40;;;;;;;10.60;6.47;;;;;;;10.03;100.00;101086.75;7390464;19;20425;-60
2022/06/22 02:46:40;;;;;;;14.67;6.83;;;;;;;9.60;100.00;101083.81;7396838;19;20386;-59
2022/06/22 02:49:14;;;;;;;10.60;7.00;;;;;;;9.46;100.00;101088.25;7390084;19;20411;-59
2022/06/22 02:51:47;;;;;;;8.73;5.80;;;;;;;9.42;100.00;101094.94;7395184;19;20425;-60
2022/06/22 02:54:25;;;;;;;11.53;6.27;;;;;;;9.41;100.00;101084.56;7390110;19;20409;-60
2022/06/22 02:57:03;;;;;;;13.90;7.27;;;;;;;9.33;100.00;101073.84;7397504;19;20390;-59
2022/06/22 02:59:33;;;;;;;13.87;7.47;;;;;;;9.46;100.00;101080.53;7390042;19;20431;-60
2022/06/22 03:02:06;;;;;;;9.33;6.40;;;;;;;9.38;100.00;101084.41;7396439;19;20384;-59
2022/06/22 03:04:35;;;;;;;11.27;7.27;;;;;;;9.47;100.00;101074.56;7388552;19;20434;-60
2022/06/22 03:07:06;;;;;;;12.80;7.90;;;;;;;9.56;100.00;101077.63;7396512;19;20388;-60
2022/06/22 03:09:36;;;;;;;17.47;8.37;;;;;;;9.53;100.00;101074.03;7389386;19;20410;-60
2022/06/22 03:12:07;;;;;;;12.57;7.53;;;;;;;9.42;100.00;101076.03;7396048;19;20383;-60
2022/06/22 03:14:38;;;;;;;12.10;7.93;;;;;;;9.12;100.00;101081.38;7384147;19;20411;-59
2022/06/22 03:17:15;;;;;;;14.80;7.20;;;;;;;8.94;100.00;101073.53;7396189;19;20404;-61
2022/06/22 03:19:48;;;;;;;11.77;6.93;;;;;;;8.82;100.00;101077.22;7387289;19;20418;-60
2022/06/22 03:22:19;;;;;;;13.20;6.70;;;;;;;8.68;100.00;101084.19;7395938;19;20393;-59
2022/06/22 03:24:57;;;;;;;9.93;6.27;;;;;;;8.69;100.00;101083.38;7388230;19;20445;-60
2022/06/22 03:27:30;;;;;;;13.43;6.63;;;;;;;8.77;100.00;101084.69;7393794;19;20387;-61
2022/06/22 03:30:02;;;;;;;13.57;8.00;;;;;;;8.77;100.00;101083.81;7387564;19;20430;-60
2022/06/22 03:32:37;;;;;;;12.97;7.10;;;;;;;8.76;100.00;101087.16;7395532;19;20481;-60
2022/06/22 03:35:11;;;;;;;12.70;7.03;;;;;;;8.76;100.00;101079.44;7388578;19;20436;-60
2022/06/22 03:37:43;;;;;;;12.80;8.23;;;;;;;8.51;100.00;101080.63;7400094;19;20470;-60
2022/06/22 03:40:16;;;;;;;12.23;7.70;;;;;;;8.37;100.00;101073.06;7386255;19;20439;-60
2022/06/22 03:42:49;;;;;;;11.17;7.53;;;;;;;8.40;100.00;101069.75;7394802;19;20456;-60
2022/06/22 03:45:22;;;;;;;14.13;8.77;;;;;;;8.60;100.00;101068.34;7387998;19;20445;-60
2022/06/22 03:47:58;;;;;;;62.47;36.50;;;;;;;9.42;100.00;101060.56;7395537;19;20398;-58
2022/06/22 03:50:34;;;;;;;61.43;36.43;;;;;;;10.14;100.00;101064.97;7390811;19;20485;-60
2022/06/22 03:53:09;;;;;;;70.73;40.93;;;;;;;10.32;100.00;101077.00;7387889;19;20758;-61
2022/06/22 03:55:41;;;;;;;53.87;33.30;;;;;;;10.62;100.00;101072.41;7394678;19;20384;-60
2022/06/22 03:58:11;;;;;;;37.93;22.63;;;;;;;10.73;100.00;101082.38;7388483;19;20920;-60
2022/06/22 04:00:42;;;;;;;13.40;8.90;;;;;;;9.89;100.00;101096.41;7392783;19;20412;-60
2022/06/22 04:03:16;;;;;;;13.87;7.93;;;;;;;9.44;100.00;101106.19;7388037;19;20395;-60
2022/06/22 04:05:48;;;;;;;17.87;10.87;;;;;;;9.68;100.00;101115.09;7393690;19;20463;-60
2022/06/22 04:08:23;;;;;;;15.37;9.07;;;;;;;9.72;100.00;101110.22;7389165;19;20399;-60
2022/06/22 04:10:57;;;;;;;15.93;9.07;;;;;;;9.69;100.00;101120.34;7392289;19;20403;-59
2022/06/22 04:13:32;;;;;;;12.93;8.83;;;;;;;9.51;100.00;101115.16;7386514;19;20415;-59
2022/06/22 04:16:05;;;;;;;14.57;8.60;;;;;;;9.67;100.00;101103.94;7394378;19;20387;-60
2022/06/22 04:18:43;;;;;;;14.83;10.07;;;;;;;9.95;100.00;101099.28;7386921;19;20418;-61
2022/06/22 04:21:15;;;;;;;14.93;9.30;;;;;;;9.85;100.00;101108.25;7396584;19;20409;-60
2022/06/22 04:23:46;;;;;;;15.13;9.23;;;;;;;9.99;100.00;101108.94;7389062;19;20515;-60
2022/06/22 04:26:20;;;;;;;14.70;9.20;;;;;;;10.38;100.00;101105.66;7392450;19;20404;-60
2022/06/22 04:28:52;;;;;;;13.33;9.27;;;;;;;10.44;100.00;101105.09;7386987;19;20492;-61
2022/06/22 04:31:25;;;;;;;13.73;8.50;;;;;;;10.22;100.00;101116.94;7392664;19;20421;-60
2022/06/22 04:34:00;;;;;;;14.10;8.80;;;;;;;10.23;100.00;101122.16;7387918;19;20404;-60
2022/06/22 04:36:37;;;;;;;13.53;9.20;;;;;;;10.26;100.00;101129.16;7393827;19;20389;-59
2022/06/22 04:39:13;;;;;;;14.20;9.10;;;;;;;10.19;100.00;101127.97;7393738;19;20957;-58
2022/06/22 04:41:44;;;;;;;80.13;45.90;;;;;;;10.39;100.00;101123.78;7398875;19;20393;-60
2022/06/22 04:44:17;;;;;;;35.77;21.83;;;;;;;10.58;100.00;101124.72;7393595;19;20421;-60
2022/06/22 04:46:49;;;;;;;33.57;20.37;;;;;;;10.97;100.00;101121.31;7401120;19;20471;-60
2022/06/22 04:49:26;;;;;;;25.67;15.53;;;;;;;11.32;100.00;101121.16;7395151;19;21025;-60
2022/06/22 04:52:05;;;;;;;20.43;13.53;;;;;;;11.34;100.00;101138.47;7401075;19;20389;-60
2022/06/22 04:54:37;;;;;;;13.13;8.10;;;;;;;11.14;100.00;101158.28;7394961;19;20416;-61
2022/06/22 04:57:13;;;;;;;13.60;9.63;;;;;;;11.03;100.00;101156.88;7399977;19;20389;-61
2022/06/22 04:59:42;;;;;;;18.00;8.60;;;;;;;11.13;100.00;101150.44;7392617;19;20935;-60
2022/06/22 05:02:14;;;;;;;13.47;8.23;;;;;;;11.20;100.00;101147.31;7400472;19;20445;-59
2022/06/22 05:04:51;;;;;;;13.07;8.27;;;;;;;11.25;100.00;101158.75;7393432;19;20428;-60
2022/06/22 05:07:33;;;;;;;22.50;10.47;;;;;;;11.46;100.00;101151.09;7395793;19;20959;-60
2022/06/22 05:10:07;;;;;;;16.53;10.23;;;;;;;11.59;100.00;101156.78;7389144;19;20474;-60
2022/06/22 05:12:47;;;;;;;46.03;24.30;;;;;;;11.75;100.00;101158.34;7401362;19;20394;-60
2022/06/22 05:15:23;;;;;;;18.87;9.60;;;;;;;11.86;100.00;101164.84;7384601;19;20771;-61
2022/06/22 05:17:53;;;;;;;12.80;7.30;;;;;;;11.78;100.00;101163.63;7399890;19;20395;-60
2022/06/22 05:20:31;;;;;;;12.33;7.33;;;;;;;11.86;100.00;101166.56;7390570;19;20941;-60
2022/06/22 05:23:03;;;;;;;29.50;15.50;;;;;;;11.97;100.00;101165.31;7394160;19;20799;-60
2022/06/22 05:25:34;;;;;;;25.97;15.80;;;;;;;12.13;100.00;101172.06;7401996;19;20754;-61
2022/06/22 05:28:07;;;;;;;16.37;8.80;;;;;;;12.23;100.00;101178.50;7394156;19;20817;-60
2022/06/22 05:30:40;;;;;;;26.40;11.43;;;;;;;12.14;100.00;101183.28;7397354;19;21001;-61
2022/06/22 05:33:20;;;;;;;16.97;9.30;;;;;;;12.04;100.00;101176.81;7392628;19;20417;-60
2022/06/22 05:35:58;;;;;;;24.03;12.60;;;;;;;12.21;100.00;101180.13;7399519;19;20409;-60
2022/06/22 05:38:29;;;;;;;15.47;9.07;;;;;;;12.47;100.00;101180.34;7393129;19;20421;-61
2022/06/22 05:41:04;;;;;;;20.80;10.27;;;;;;;12.48;100.00;101174.34;7397328;19;20415;-60
2022/06/22 05:43:35;;;;;;;10.23;6.00;;;;;;;12.47;100.00;101172.56;7391077;19;20412;-60
2022/06/22 05:46:06;;;;;;;36.57;16.20;;;;;;;12.49;100.00;101163.16;7397834;19;20736;-60
2022/06/22 05:48:42;;;;;;;28.33;11.10;;;;;;;12.53;100.00;101167.66;7389798;19;20480;-60
2022/06/22 05:51:20;;;;;;;16.60;7.27;;;;;;;12.65;100.00;101171.53;7396043;19;20444;-60
2022/06/22 05:53:53;;;;;;;22.03;11.53;;;;;;;12.77;100.00;101172.00;7391839;19;20416;-61
2022/06/22 05:56:32;;;;;;;15.37;7.07;;;;;;;12.81;100.00;101153.19;7399026;19;20479;-61
2022/06/22 05:59:07;;;;;;;20.87;7.40;;;;;;;12.89;100.00;101155.19;7392087;19;20500;-60
2022/06/22 06:01:44;;;;;;;12.17;6.00;;;;;;;12.88;100.00;101141.38;7395837;19;20417;-61
2022/06/22 06:04:23;;;;;;;10.87;6.97;;;;;;;12.93;100.00;101137.22;7391541;19;20419;-61
2022/06/22 06:06:59;;;;;;;18.53;7.80;;;;;;;13.04;100.00;101135.06;7396162;19;20381;-60
2022/06/22 06:09:29;;;;;;;14.90;7.33;;;;;;;13.15;100.00;101137.16;7389058;19;20798;-61
2022/06/22 06:12:03;;;;;;;19.67;9.60;;;;;;;13.18;100.00;101121.75;7398360;19;20388;-60
2022/06/22 06:14:35;;;;;;;19.90;8.97;;;;;;;13.19;100.00;101114.00;7386728;19;20485;-60
2022/06/22 06:17:08;;;;;;;23.60;11.87;;;;;;;13.26;100.00;101120.31;7402256;19;20396;-61
2022/06/22 06:19:42;;;;;;;12.43;6.67;;;;;;;13.20;100.00;101114.91;7390566;19;20447;-61
2022/06/22 06:22:14;;;;;;;15.33;6.70;;;;;;;13.33;100.00;101116.25;7397656;19;20903;-61
2022/06/22 06:27:39;;;;;;;35.20;16.60;;;;;;;13.42;100.00;101118.25;7397322;19;20909;-60
2022/06/22 06:30:20;;;;;;;12.57;6.60;;;;;;;13.50;100.00;101119.47;7390167;19;20419;-60
2022/06/22 06:32:54;;;;;;;16.20;6.10;;;;;;;13.62;100.00;101127.69;7397336;19;20387;-61
2022/06/22 06:35:37;;;;;;;16.70;8.10;;;;;;;13.69;100.00;101130.50;7395829;19;20422;-61
2022/06/22 06:38:18;;;;;;;24.93;10.10;;;;;;;13.83;100.00;101139.63;7391949;19;20473;-61
2022/06/22 06:40:53;;;;;;;13.20;6.90;;;;;;;13.82;100.00;101142.16;7395088;19;20429;-61
2022/06/22 06:43:39;;;;;;;14.30;6.60;;;;;;;13.97;100.00;101131.41;7382454;19;20421;-60
2022/06/22 06:46:16;;;;;;;12.03;6.60;;;;;;;14.09;100.00;101134.44;7396182;19;20426;-61
2022/06/22 06:48:48;;;;;;;15.13;6.23;;;;;;;14.14;100.00;101140.66;7389939;19;20430;-60
2022/06/22 06:51:18;;;;;;;13.60;6.70;;;;;;;14.23;100.00;101141.78;7395226;19;20420;-61
2022/06/22 06:53:53;;;;;;;15.00;6.73;;;;;;;14.29;100.00;101140.28;7384794;19;20439;-60
2022/06/22 06:56:25;;;;;;;17.60;7.27;;;;;;;14.35;100.00;101139.59;7398380;19;20395;-61
2022/06/22 06:58:57;;;;;;;14.90;6.17;;;;;;;14.31;100.00;101141.22;7388243;19;20426;-61
2022/06/22 07:01:29;;;;;;;15.33;8.00;;;;;;;14.30;100.00;101133.34;7394544;19;20419;-61
2022/06/22 07:04:02;;;;;;;16.57;9.50;;;;;;;14.45;100.00;101141.66;7388346;19;20930;-61
2022/06/22 07:06:33;;;;;;;20.17;10.73;;;;;;;14.42;100.00;101135.50;7395379;19;20722;-61
2022/06/22 07:09:12;;;;;;;13.00;8.57;;;;;;;14.56;100.00;101148.91;7389607;19;20430;-60
2022/06/22 07:11:46;;;;;;;17.10;9.90;;;;;;;14.69;100.00;101139.78;7394003;19;20434;-61
2022/06/22 07:14:20;;;;;;;18.23;11.07;;;;;;;14.68;100.00;101133.69;7382374;19;20437;-60
2022/06/22 07:16:52;;;;;;;27.60;12.37;;;;;;;14.69;100.00;101143.28;7399606;19;20396;-60
2022/06/22 07:19:25;;;;;;;22.83;12.40;;;;;;;14.64;100.00;101139.63;7388916;19;20491;-60
2022/06/22 07:21:59;;;;;;;26.40;13.03;;;;;;;14.72;100.00;101138.16;7395767;19;20411;-61
2022/06/22 07:24:35;;;;;;;24.97;13.07;;;;;;;14.77;100.00;101142.66;7388602;19;20425;-60
2022/06/22 07:27:09;;;;;;;24.13;11.20;;;;;;;14.76;100.00;101143.50;7395085;19;20389;-61
2022/06/22 07:29:43;;;;;;;30.53;12.97;;;;;;;14.76;100.00;101140.91;7388589;19;20438;-60
2022/06/22 07:32:18;;;;;;;36.97;18.60;;;;;;;14.82;100.00;101135.88;7399872;19;20395;-61
2022/06/22 07:34:52;;;;;;;21.73;11.80;;;;;;;14.86;100.00;101145.50;7388415;19;20426;-61
2022/06/22 07:37:25;;;;;;;23.37;12.70;;;;;;;15.07;100.00;101145.28;7395345;19;20413;-61
2022/06/22 07:40:01;;;;;;;19.70;11.10;;;;;;;15.10;100.00;101149.69;7387394;19;20451;-61
2022/06/22 07:42:30;;;;;;;20.50;12.00;;;;;;;15.18;100.00;101135.19;7395064;19;20394;-60
2022/06/22 07:45:01;;;;;;;18.10;11.40;;;;;;;15.18;100.00;101130.00;7384563;19;20784;-61
2022/06/22 07:47:36;;;;;;;22.50;13.97;;;;;;;15.14;100.00;101133.34;7394256;19;20383;-61
2022/06/22 07:50:09;;;;;;;25.67;13.40;;;;;;;15.24;100.00;101134.50;7387009;19;20462;-61
2022/06/22 07:52:43;;;;;;;16.30;10.40;;;;;;;15.42;100.00;101128.94;7394894;19;20384;-61
2022/06/22 07:55:28;;;;;;;21.37;11.50;;;;;;;15.45;100.00;101129.03;7384281;19;20490;-61
2022/06/22 07:58:08;;;;;;;24.37;11.87;;;;;;;15.44;100.00;101122.03;7393828;19;20389;-61
2022/06/22 08:00:38;;;;;;;20.50;10.10;;;;;;;15.55;100.00;101124.06;7391907;19;20668;-60
2022/06/22 08:03:16;;;;;;;13.93;9.40;;;;;;;15.53;100.00;101117.09;7381932;19;20382;-61
2022/06/22 08:05:48;;;;;;;28.67;15.97;;;;;;;15.71;100.00;101108.03;7394724;19;20744;-61
2022/06/22 08:08:22;;;;;;;43.50;22.60;;;;;;;15.71;100.00;101100.25;7383743;19;20440;-61
2022/06/22 08:10:59;;;;;;;22.90;12.70;;;;;;;15.70;100.00;101103.69;7392344;19;20422;-61
2022/06/22 08:13:32;;;;;;;31.10;17.37;;;;;;;15.78;100.00;101112.56;7387482;19;20489;-61
2022/06/22 08:16:05;;;;;;;19.83;9.80;;;;;;;15.97;100.00;101130.38;7395878;19;20476;-61
2022/06/22 08:18:36;;;;;;;22.40;11.87;;;;;;;16.00;100.00;101110.53;7386733;19;20421;-61
2022/06/22 08:21:06;;;;;;;17.33;8.63;;;;;;;16.14;100.00;101115.19;7392252;19;20422;-61
2022/06/22 08:23:38;;;;;;;36.63;12.53;;;;;;;16.29;100.00;101105.16;7387410;19;20416;-60
2022/06/22 08:26:16;;;;;;;19.30;8.40;;;;;;;16.37;100.00;101102.75;7393471;19;20393;-61
2022/06/22 08:28:47;;;;;;;28.43;15.07;;;;;;;16.43;100.00;101091.56;7366734;19;20488;-60
2022/06/22 08:31:16;;;;;;;37.10;19.13;;;;;;;16.43;100.00;101078.56;7396139;19;20410;-60
2022/06/22 08:33:49;;;;;;;55.57;27.60;;;;;;;16.45;100.00;101084.66;7386106;19;20418;-61
2022/06/22 08:36:22;;;;;;;24.63;13.17;;;;;;;16.70;100.00;101106.06;7393375;19;20396;-61
2022/06/22 08:38:55;;;;;;;129.37;75.80;;;;;;;16.93;100.00;101105.69;7386692;19;20439;-60
2022/06/22 08:41:38;;;;;;;20.50;12.00;;;;;;;16.79;100.00;101103.66;7391773;19;20414;-60
2022/06/22 08:44:15;;;;;;;16.80;9.00;;;;;;;16.79;100.00;101085.44;7387515;19;20491;-60
2022/06/22 08:47:02;;;;;;;18.30;9.53;;;;;;;17.05;100.00;101074.69;7393188;19;20457;-61
2022/06/22 08:49:43;;;;;;;23.97;12.00;;;;;;;17.05;100.00;101053.84;7383667;19;20420;-61
2022/06/22 08:52:22;;;;;;;16.40;8.37;;;;;;;17.11;100.00;101040.94;7393027;19;20387;-60
2022/06/22 08:55:08;;;;;;;13.23;8.43;;;;;;;17.24;100.00;101043.78;7387441;19;20413;-61
2022/06/22 08:57:52;;;;;;;17.27;9.43;;;;;;;17.17;100.00;101039.28;7393017;19;20399;-61
2022/06/22 09:00:48;;;;;;;28.47;14.77;;;;;;;17.28;100.00;101027.34;7387602;19;20864;-61
2022/06/22 09:03:52;;;;;;;14.33;8.50;;;;;;;17.45;100.00;101029.34;7388299;19;20926;-62
2022/06/22 09:06:33;;;;;;;15.13;9.97;;;;;;;17.18;100.00;101008.00;7392449;19;20397;-61
2022/06/22 09:09:31;;;;;;;15.07;10.13;;;;;;;17.24;100.00;101018.56;7377812;19;20838;-61
2022/06/22 09:12:12;;;;;;;23.10;10.87;;;;;;;17.28;100.00;101011.69;7391617;19;20394;-60
2022/06/22 09:14:54;;;;;;;16.50;9.20;;;;;;;17.49;100.00;101018.13;7386487;19;20467;-60
2022/06/22 09:17:38;;;;;;;20.00;9.80;;;;;;;17.75;100.00;101038.56;7392460;19;20453;-61
2022/06/22 09:20:25;;;;;;;17.03;8.50;;;;;;;18.08;100.00;101011.25;7383840;19;20855;-61
2022/06/22 09:22:59;;;;;;;15.83;9.90;;;;;;;18.10;100.00;100991.25;7392450;19;20724;-61
2022/06/22 09:25:31;;;;;;;16.90;8.53;;;;;;;18.16;100.00;100993.97;7396299;19;20414;-61
2022/06/22 09:28:04;;;;;;;26.87;15.37;;;;;;;18.16;100.00;100980.06;7389919;19;20407;-62
2022/06/22 09:30:49;;;;;;;17.93;10.53;;;;;;;18.20;100.00;100971.41;7398493;19;20991;-61
2022/06/22 09:33:30;;;;;;;14.03;8.13;;;;;;;18.01;100.00;100980.69;7395297;19;20425;-61
2022/06/22 09:36:15;;;;;;;17.70;11.30;;;;;;;18.19;100.00;100960.09;7399935;19;20928;-61
2022/06/22 09:38:58;;;;;;;25.27;14.63;;;;;;;18.18;100.00;100913.94;7391369;19;20515;-61
2022/06/22 09:41:35;;;;;;;29.40;18.00;;;;;;;18.22;100.00;100860.88;7397077;19;20409;-61
2022/06/22 09:44:38;;;;;;;28.30;16.07;;;;;;;18.13;100.00;100846.84;7391900;19;20520;-61
2022/06/22 09:47:35;;;;;;;28.40;15.80;;;;;;;18.28;100.00;100840.94;7397867;19;20736;-61
2022/06/22 09:50:27;;;;;;;23.40;11.40;;;;;;;18.37;100.00;100861.94;7389125;19;20445;-61
2022/06/22 09:53:30;;;;;;;26.47;13.00;;;;;;;18.32;100.00;100845.34;7398271;19;20928;-61
2022/06/22 09:56:27;;;;;;;20.23;12.43;;;;;;;18.49;100.00;100851.63;7396585;19;20965;-61
2022/06/22 09:59:18;;;;;;;19.17;11.00;;;;;;;18.22;100.00;100853.06;7393059;19;20951;-62
2022/06/22 10:01:54;;;;;;;16.60;8.90;;;;;;;18.60;100.00;100876.97;7395509;19;20421;-61
2022/06/22 10:04:56;;;;;;;16.63;8.23;;;;;;;18.80;100.00;100801.38;7393296;19;20445;-61
2022/06/22 10:07:39;;;;;;;12.97;7.57;;;;;;;18.73;100.00;100661.94;7397453;19;20396;-61
2022/06/22 10:10:22;;;;;;;18.97;10.00;;;;;;;19.02;100.00;100644.69;7389092;19;20407;-61
2022/06/22 10:13:17;;;;;;;17.57;7.70;;;;;;;19.02;100.00;100577.63;7396669;19;20412;-61
2022/06/22 10:16:13;;;;;;;13.60;6.60;;;;;;;19.09;100.00;100398.16;7382589;19;20438;-61
2022/06/22 10:18:52;;;;;;;13.90;8.80;;;;;;;19.34;100.00;100167.13;7384844;19;20407;-61
2022/06/22 10:21:37;;;;;;;24.47;13.30;;;;;;;19.14;100.00;100186.38;7393011;19;20449;-61
2022/06/22 10:24:23;;;;;;;13.20;7.63;;;;;;;19.25;100.00;100197.69;7389357;19;20407;-61
2022/06/22 10:27:08;;;;;;;13.07;7.67;;;;;;;19.30;100.00;100219.44;7394573;19;20938;-61
2022/06/22 10:29:49;;;;;;;17.77;9.00;;;;;;;19.47;100.00;100310.06;7386795;19;20415;-61
2022/06/22 10:32:36;;;;;;;16.10;8.90;;;;;;;19.48;100.00;100379.81;7394977;19;20459;-61
2022/06/22 10:35:10;;;;;;;20.83;9.97;;;;;;;19.42;100.00;100396.41;7391021;19;20976;-61
2022/06/22 10:38:07;;;;;;;14.20;6.27;;;;;;;19.67;100.00;100388.53;7395140;19;20380;-61
2022/06/22 10:46:24;;;;;;;12.87;5.47;;;;;;;19.74;100.00;100433.84;7394620;19;20394;-61
2022/06/22 10:49:15;;;;;;;10.80;4.83;;;;;;;20.09;100.00;100487.94;7385915;19;20837;-61
2022/06/22 10:52:17;;;;;;;11.27;5.10;;;;;;;20.01;100.00;100544.69;7393283;19;20429;-61
2022/06/22 10:55:11;;;;;;;13.03;5.07;;;;;;;19.97;100.00;100558.66;7386656;19;20820;-61
2022/06/22 10:57:54;;;;;;;15.00;6.83;;;;;;;20.15;100.00;100551.66;7394575;19;20419;-61
2022/06/22 11:00:34;;;;;;;10.13;6.10;;;;;;;20.16;100.00;100546.44;7391932;19;20436;-61
2022/06/22 11:03:39;;;;;;;10.73;6.53;;;;;;;20.06;100.00;100561.25;7388736;19;20351;-61
2022/06/22 11:06:42;;;;;;;16.37;7.00;;;;;;;19.78;100.00;100560.34;7394275;19;20905;-62
2022/06/22 11:09:26;;;;;;;12.37;5.50;;;;;;;19.90;100.00;100533.31;7387372;19;20945;-61
2022/06/22 11:12:21;;;;;;;12.40;6.20;;;;;;;19.97;100.00;100556.03;7398869;19;20424;-61
2022/06/22 11:15:04;;;;;;;11.40;6.43;;;;;;;20.23;100.00;100570.84;7387076;19;20874;-61
2022/06/22 11:17:48;;;;;;;12.10;6.47;;;;;;;20.09;100.00;100584.81;7395804;19;20379;-61
2022/06/22 11:21:02;;;;;;;14.10;4.73;;;;;;;20.20;100.00;100591.81;7387501;19;20439;-61
2022/06/22 11:23:46;;;;;;;9.20;4.83;;;;;;;20.12;100.00;100617.13;7387729;19;20424;-61
2022/06/22 11:32:27;;;;;;;11.20;4.27;;;;;;;20.55;100.00;100617.06;7394960;19;20379;-62
2022/06/22 11:35:23;;;;;;;7.77;4.67;;;;;;;20.77;100.00;100643.25;7383451;19;20445;-62
2022/06/22 11:38:21;;;;;;;9.03;6.00;;;;;;;20.42;100.00;100620.59;7394908;19;20740;-61
2022/06/22 11:41:01;;;;;;;13.20;4.83;;;;;;;20.47;100.00;100590.88;7396768;19;20483;-61
2022/06/22 11:43:54;;;;;;;11.20;4.93;;;;;;;20.73;100.00;100596.94;7382018;19;20419;-61
2022/06/22 11:46:29;;;;;;;9.20;4.80;;;;;;;20.89;100.00;100598.69;7393943;19;20392;-61
2022/06/22 11:49:14;;;;;;;8.77;4.90;;;;;;;20.99;100.00;100627.47;7385981;19;20837;-61
2022/06/22 11:52:20;;;;;;;14.37;6.70;;;;;;;20.88;100.00;100672.09;7392801;19;20423;-61
2022/06/22 11:54:57;;;;;;;10.37;5.13;;;;;;;20.73;100.00;100689.56;7387714;19;20415;-61
2022/06/22 11:57:51;;;;;;;10.23;6.03;;;;;;;20.62;100.00;100692.19;7393836;19;20391;-61
2022/06/22 12:00:28;;;;;;;9.40;5.10;;;;;;;20.56;100.00;100696.56;7386494;19;20427;-61
2022/06/22 12:03:19;;;;;;;10.73;4.93;;;;;;;20.49;100.00;100669.50;7394225;19;20762;-61
2022/06/22 12:06:30;;;;;;;7.23;3.77;;;;;;;20.81;100.00;100676.44;7394260;19;20785;-61
2022/06/22 12:09:30;;;;;;;9.63;4.00;;;;;;;21.42;100.00;100666.66;7379949;19;20450;-61
2022/06/22 12:12:32;;;;;;;9.90;4.57;;;;;;;21.80;100.00;100717.22;7394245;19;20438;-61
2022/06/22 12:15:17;;;;;;;9.70;3.90;;;;;;;21.65;100.00;100718.16;7371414;19;20452;-62
2022/06/22 12:18:08;;;;;;;10.20;5.07;;;;;;;21.30;100.00;100687.69;7393344;19;20380;-62
2022/06/22 12:20:47;;;;;;;8.43;4.13;;;;;;;21.70;100.00;100679.66;7391545;19;20497;-61
2022/06/22 12:23:27;;;;;;;12.23;4.40;;;;;;;21.87;100.00;100711.94;7387250;19;20399;-62
2022/06/22 12:26:12;;;;;;;10.97;5.30;;;;;;;21.65;100.00;100726.03;7393912;19;20387;-62